sensor_id;sensor_type;location;lat;lon;timestamp;pressure;altitude;pressure_sealevel;temperature;humidity
73242;BME280;65659;49.234;-2.094;2023-02-21T00:02:04;101123.68;;;25.45;24.76
73242;BME280;65659;49.234;-2.094;2023-02-21T00:04:30;101122.56;;;25.46;24.75
73242;BME280;65659;49.234;-2.094;2023-02-21T00:06:56;101122.92;;;25.45;24.72
73242;BME280;65659;49.234;-2.094;2023-02-21T00:09:21;101121.33;;;25.39;24.76
73242;BME280;65659;49.234;-2.094;2023-02-21T00:11:47;101112.36;;;25.57;24.83
73242;BME280;65659;49.234;-2.094;2023-02-21T00:14:13;101112.19;;;25.61;24.79
73242;BME280;65659;49.234;-2.094;2023-02-21T00:16:39;101108.84;;;25.61;24.76
73242;BME280;65659;49.234;-2.094;2023-02-21T00:19:04;101113.08;;;25.61;24.76
73242;BME280;65659;49.234;-2.094;2023-02-21T00:21:30;101111.69;;;25.57;24.82
73242;BME280;65659;49.234;-2.094;2023-02-21T00:23:56;101107.86;;;25.59;24.78
73242;BME280;65659;49.234;-2.094;2023-02-21T00:26:22;101104.29;;;25.57;24.80
73242;BME280;65659;49.234;-2.094;2023-02-21T00:28:47;101101.28;;;25.56;24.84
73242;BME280;65659;49.234;-2.094;2023-02-21T00:31:17;101094.93;;;25.78;24.86
73242;BME280;65659;49.234;-2.094;2023-02-21T00:33:39;101091.09;;;25.54;24.82
73242;BME280;65659;49.234;-2.094;2023-02-21T00:36:05;101092.69;;;25.55;24.84
73242;BME280;65659;49.234;-2.094;2023-02-21T00:38:30;101087.63;;;25.53;24.87
73242;BME280;65659;49.234;-2.094;2023-02-21T00:40:56;101083.52;;;25.51;24.88
73242;BME280;65659;49.234;-2.094;2023-02-21T00:43:27;101080.97;;;25.74;24.88
73242;BME280;65659;49.234;-2.094;2023-02-21T00:45:47;101078.44;;;25.49;24.87
73242;BME280;65659;49.234;-2.094;2023-02-21T00:48:18;101075.78;;;25.49;24.87
73242;BME280;65659;49.234;-2.094;2023-02-21T00:50:39;101070.56;;;25.48;24.90
73242;BME280;65659;49.234;-2.094;2023-02-21T00:53:05;101069.30;;;25.48;24.90
73242;BME280;65659;49.234;-2.094;2023-02-21T00:55:30;101069.26;;;25.69;24.93
73242;BME280;65659;49.234;-2.094;2023-02-21T00:57:56;101067.53;;;25.45;24.93
73242;BME280;65659;49.234;-2.094;2023-02-21T01:00:24;101059.46;;;25.43;24.97
73242;BME280;65659;49.234;-2.094;2023-02-21T01:02:47;101055.82;;;25.45;24.94
73242;BME280;65659;49.234;-2.094;2023-02-21T01:05:13;101049.13;;;25.43;24.96
73242;BME280;65659;49.234;-2.094;2023-02-21T01:07:39;101048.40;;;25.43;24.94
73242;BME280;65659;49.234;-2.094;2023-02-21T01:10:05;101045.58;;;25.44;24.91
73242;BME280;65659;49.234;-2.094;2023-02-21T01:12:30;101041.95;;;25.67;24.94
73242;BME280;65659;49.234;-2.094;2023-02-21T01:14:56;101036.87;;;25.43;24.95
73242;BME280;65659;49.234;-2.094;2023-02-21T01:17:22;101032.66;;;25.65;24.95
73242;BME280;65659;49.234;-2.094;2023-02-21T01:19:48;101033.52;;;25.41;24.98
73242;BME280;65659;49.234;-2.094;2023-02-21T01:22:13;101030.68;;;25.42;24.95
73242;BME280;65659;49.234;-2.094;2023-02-21T01:24:39;101027.76;;;25.66;24.95
73242;BME280;65659;49.234;-2.094;2023-02-21T01:27:05;101022.49;;;25.65;24.98
73242;BME280;65659;49.234;-2.094;2023-02-21T01:29:30;101019.97;;;25.42;24.96
73242;BME280;65659;49.234;-2.094;2023-02-21T01:31:56;101015.05;;;25.41;24.95
73242;BME280;65659;49.234;-2.094;2023-02-21T01:34:22;101011.67;;;25.40;24.98
73242;BME280;65659;49.234;-2.094;2023-02-21T01:36:48;101006.31;;;25.44;24.90
73242;BME280;65659;49.234;-2.094;2023-02-21T01:39:13;100998.90;;;25.43;24.90
73242;BME280;65659;49.234;-2.094;2023-02-21T01:41:40;100991.25;;;25.68;24.89
73242;BME280;65659;49.234;-2.094;2023-02-21T01:44:21;100989.32;;;25.47;24.86
73242;BME280;65659;49.234;-2.094;2023-02-21T01:46:31;100988.75;;;25.48;24.81
73242;BME280;65659;49.234;-2.094;2023-02-21T01:48:58;100988.44;;;25.69;24.84
73242;BME280;65659;49.234;-2.094;2023-02-21T01:51:26;100990.03;;;25.48;24.81
73242;BME280;65659;49.234;-2.094;2023-02-21T01:53:48;100996.92;;;25.49;24.81
73242;BME280;65659;49.234;-2.094;2023-02-21T01:56:14;100996.68;;;25.75;24.81
73242;BME280;65659;49.234;-2.094;2023-02-21T01:58:40;100998.33;;;25.48;24.83
73242;BME280;65659;49.234;-2.094;2023-02-21T02:01:05;100997.59;;;25.47;24.85
73242;BME280;65659;49.234;-2.094;2023-02-21T02:03:33;100997.39;;;25.45;24.87
73242;BME280;65659;49.234;-2.094;2023-02-21T02:05:59;100992.14;;;25.43;24.91
73242;BME280;65659;49.234;-2.094;2023-02-21T02:08:26;100987.94;;;25.46;24.89
73242;BME280;65659;49.234;-2.094;2023-02-21T02:10:54;100987.10;;;25.47;24.87
73242;BME280;65659;49.234;-2.094;2023-02-21T02:13:28;100987.69;;;25.73;24.85
73242;BME280;65659;49.234;-2.094;2023-02-21T02:15:45;100992.53;;;25.47;24.88
73242;BME280;65659;49.234;-2.094;2023-02-21T02:18:21;100992.09;;;25.47;24.90
73242;BME280;65659;49.234;-2.094;2023-02-21T02:23:06;100983.84;;;25.45;24.95
73242;BME280;65659;49.234;-2.094;2023-02-21T02:25:34;100980.64;;;25.44;24.93
73242;BME280;65659;49.234;-2.094;2023-02-21T02:28:05;100981.38;;;25.48;24.90
73242;BME280;65659;49.234;-2.094;2023-02-21T02:32:56;100977.60;;;25.51;24.87
73242;BME280;65659;49.234;-2.094;2023-02-21T02:35:08;100967.90;;;25.52;24.87
73242;BME280;65659;49.234;-2.094;2023-02-21T02:37:36;100964.31;;;25.47;24.90
73242;BME280;65659;49.234;-2.094;2023-02-21T02:40:02;100961.39;;;25.68;24.93
73242;BME280;65659;49.234;-2.094;2023-02-21T02:42:35;100961.41;;;25.65;24.97
73242;BME280;65659;49.234;-2.094;2023-02-21T02:44:52;100961.06;;;25.38;25.01
73242;BME280;65659;49.234;-2.094;2023-02-21T02:47:21;100959.01;;;25.36;25.01
73242;BME280;65659;49.234;-2.094;2023-02-21T02:49:42;100960.35;;;25.60;25.02
73242;BME280;65659;49.234;-2.094;2023-02-21T02:52:07;100957.70;;;25.33;25.04
73242;BME280;65659;49.234;-2.094;2023-02-21T02:54:31;100958.63;;;25.57;25.07
73242;BME280;65659;49.234;-2.094;2023-02-21T02:56:57;100958.43;;;25.32;25.05
73242;BME280;65659;49.234;-2.094;2023-02-21T02:59:25;100953.09;;;25.31;25.07
73242;BME280;65659;49.234;-2.094;2023-02-21T03:02:06;100950.14;;;25.12;25.01
73242;BME280;65659;49.234;-2.094;2023-02-21T03:04:29;100945.04;;;25.41;24.96
73242;BME280;65659;49.234;-2.094;2023-02-21T03:06:47;100941.97;;;25.47;24.91
73242;BME280;65659;49.234;-2.094;2023-02-21T03:09:12;100937.27;;;25.74;24.88
73242;BME280;65659;49.234;-2.094;2023-02-21T03:11:31;100934.56;;;25.44;24.92
73242;BME280;65659;49.234;-2.094;2023-02-21T03:14:01;100934.32;;;25.46;24.89
73242;BME280;65659;49.234;-2.094;2023-02-21T03:16:26;100937.90;;;25.69;24.89
73242;BME280;65659;49.234;-2.094;2023-02-21T03:18:51;100936.36;;;25.93;24.88
73242;BME280;65659;49.234;-2.094;2023-02-21T03:21:17;100932.53;;;25.68;24.86
73242;BME280;65659;49.234;-2.094;2023-02-21T03:23:40;100929.87;;;25.43;24.89
73242;BME280;65659;49.234;-2.094;2023-02-21T03:26:08;100926.92;;;25.42;24.90
73242;BME280;65659;49.234;-2.094;2023-02-21T03:28:32;100925.81;;;25.43;24.90
73242;BME280;65659;49.234;-2.094;2023-02-21T03:30:59;100924.78;;;25.44;24.88
73242;BME280;65659;49.234;-2.094;2023-02-21T03:33:23;100922.25;;;25.72;24.87
73242;BME280;65659;49.234;-2.094;2023-02-21T03:35:48;100923.54;;;25.48;24.86
73242;BME280;65659;49.234;-2.094;2023-02-21T03:38:14;100924.94;;;25.46;24.89
73242;BME280;65659;49.234;-2.094;2023-02-21T03:40:45;100919.67;;;25.47;24.90
73242;BME280;65659;49.234;-2.094;2023-02-21T03:43:06;100914.26;;;25.47;24.91
73242;BME280;65659;49.234;-2.094;2023-02-21T03:45:31;100909.04;;;25.48;24.88
73242;BME280;65659;49.234;-2.094;2023-02-21T03:47:57;100904.82;;;25.45;24.92
73242;BME280;65659;49.234;-2.094;2023-02-21T03:50:23;100905.03;;;25.42;24.95
73242;BME280;65659;49.234;-2.094;2023-02-21T03:52:48;100899.62;;;25.43;24.94
73242;BME280;65659;49.234;-2.094;2023-02-21T03:55:15;100896.98;;;25.42;24.95
73242;BME280;65659;49.234;-2.094;2023-02-21T03:57:40;100893.22;;;25.42;24.95
73242;BME280;65659;49.234;-2.094;2023-02-21T04:00:07;100892.30;;;25.43;24.95
73242;BME280;65659;49.234;-2.094;2023-02-21T04:02:31;100889.70;;;25.42;24.97
73242;BME280;65659;49.234;-2.094;2023-02-21T04:04:57;100880.33;;;25.38;24.98
73242;BME280;65659;49.234;-2.094;2023-02-21T04:07:23;100876.00;;;25.37;25.00
73242;BME280;65659;49.234;-2.094;2023-02-21T04:09:49;100876.82;;;25.40;24.97
73242;BME280;65659;49.234;-2.094;2023-02-21T04:12:14;100876.56;;;25.42;24.95
73242;BME280;65659;49.234;-2.094;2023-02-21T04:14:40;100873.81;;;25.44;24.94
73242;BME280;65659;49.234;-2.094;2023-02-21T04:17:06;100873.11;;;25.41;24.96
73242;BME280;65659;49.234;-2.094;2023-02-21T04:19:31;100868.18;;;25.41;24.95
73242;BME280;65659;49.234;-2.094;2023-02-21T04:21:57;100870.84;;;25.43;24.96
73242;BME280;65659;49.234;-2.094;2023-02-21T04:24:23;100870.56;;;25.41;24.95
73242;BME280;65659;49.234;-2.094;2023-02-21T04:26:49;100866.46;;;25.38;25.00
73242;BME280;65659;49.234;-2.094;2023-02-21T04:29:14;100866.28;;;25.39;24.98
73242;BME280;65659;49.234;-2.094;2023-02-21T04:31:40;100868.63;;;25.44;24.92
73242;BME280;65659;49.234;-2.094;2023-02-21T04:34:06;100869.76;;;25.70;24.90
73242;BME280;65659;49.234;-2.094;2023-02-21T04:36:32;100869.41;;;25.71;24.87
73242;BME280;65659;49.234;-2.094;2023-02-21T04:38:57;100873.21;;;25.49;24.85
73242;BME280;65659;49.234;-2.094;2023-02-21T04:41:23;100871.12;;;25.48;24.84
73242;BME280;65659;49.234;-2.094;2023-02-21T04:43:49;100866.34;;;25.49;24.82
73242;BME280;65659;49.234;-2.094;2023-02-21T04:46:16;100862.70;;;25.47;24.83
73242;BME280;65659;49.234;-2.094;2023-02-21T04:48:40;100864.31;;;25.46;24.82
73242;BME280;65659;49.234;-2.094;2023-02-21T04:51:06;100863.78;;;25.23;24.83
73242;BME280;65659;49.234;-2.094;2023-02-21T04:53:32;100858.27;;;25.46;24.85
73242;BME280;65659;49.234;-2.094;2023-02-21T04:55:59;100857.23;;;25.42;24.88
73242;BME280;65659;49.234;-2.094;2023-02-21T04:58:23;100858.16;;;25.86;24.92
73242;BME280;65659;49.234;-2.094;2023-02-21T05:00:49;100855.62;;;25.39;24.91
73242;BME280;65659;49.234;-2.094;2023-02-21T05:03:15;100853.95;;;25.66;24.87
73242;BME280;65659;49.234;-2.094;2023-02-21T05:05:40;100849.63;;;25.89;24.89
73242;BME280;65659;49.234;-2.094;2023-02-21T05:08:06;100850.98;;;25.37;24.92
73242;BME280;65659;49.234;-2.094;2023-02-21T05:10:32;100854.05;;;25.38;24.93
73242;BME280;65659;49.234;-2.094;2023-02-21T05:12:58;100855.51;;;25.65;24.89
73242;BME280;65659;49.234;-2.094;2023-02-21T05:15:23;100852.97;;;25.39;24.92
73242;BME280;65659;49.234;-2.094;2023-02-21T05:17:49;100850.92;;;25.37;24.94
73242;BME280;65659;49.234;-2.094;2023-02-21T05:20:15;100849.48;;;25.37;24.96
73242;BME280;65659;49.234;-2.094;2023-02-21T05:22:41;100848.40;;;25.35;24.98
73242;BME280;65659;49.234;-2.094;2023-02-21T05:25:08;100847.47;;;25.37;24.97
73242;BME280;65659;49.234;-2.094;2023-02-21T05:27:32;100846.12;;;25.38;24.95
73242;BME280;65659;49.234;-2.094;2023-02-21T05:29:58;100842.56;;;25.39;24.93
73242;BME280;65659;49.234;-2.094;2023-02-21T05:32:23;100843.61;;;25.40;24.93
73242;BME280;65659;49.234;-2.094;2023-02-21T05:34:49;100838.93;;;25.37;24.95
73242;BME280;65659;49.234;-2.094;2023-02-21T05:37:15;100837.99;;;25.37;24.96
73242;BME280;65659;49.234;-2.094;2023-02-21T05:39:40;100836.14;;;25.63;24.92
73242;BME280;65659;49.234;-2.094;2023-02-21T05:42:06;100834.32;;;25.39;24.94
73242;BME280;65659;49.234;-2.094;2023-02-21T05:44:32;100830.75;;;25.39;24.92
73242;BME280;65659;49.234;-2.094;2023-02-21T05:46:57;100825.76;;;25.62;24.92
73242;BME280;65659;49.234;-2.094;2023-02-21T05:49:23;100822.41;;;25.37;24.92
73242;BME280;65659;49.234;-2.094;2023-02-21T05:51:49;100821.74;;;25.40;24.88
73242;BME280;65659;49.234;-2.094;2023-02-21T05:54:17;100820.32;;;25.29;24.98
73242;BME280;65659;49.234;-2.094;2023-02-21T05:56:43;100818.59;;;25.29;24.99
73242;BME280;65659;49.234;-2.094;2023-02-21T05:59:06;100817.71;;;25.07;24.98
73242;BME280;65659;49.234;-2.094;2023-02-21T06:01:32;100815.66;;;25.38;24.90
73242;BME280;65659;49.234;-2.094;2023-02-21T06:03:59;100810.95;;;25.40;24.88
73242;BME280;65659;49.234;-2.094;2023-02-21T06:06:23;100813.13;;;25.33;24.92
73242;BME280;65659;49.234;-2.094;2023-02-21T06:08:49;100811.61;;;25.29;24.95
73242;BME280;65659;49.234;-2.094;2023-02-21T06:11:20;100811.40;;;25.26;24.99
73242;BME280;65659;49.234;-2.094;2023-02-21T06:13:47;100808.69;;;25.53;24.95
73242;BME280;65659;49.234;-2.094;2023-02-21T06:16:11;100803.24;;;25.32;24.90
73242;BME280;65659;49.234;-2.094;2023-02-21T06:18:37;100798.16;;;25.25;24.98
73242;BME280;65659;49.234;-2.094;2023-02-21T06:21:03;100795.71;;;25.46;25.00
73242;BME280;65659;49.234;-2.094;2023-02-21T06:23:28;100792.89;;;25.28;24.92
73242;BME280;65659;49.234;-2.094;2023-02-21T06:25:50;100795.26;;;25.11;24.82
73242;BME280;65659;49.234;-2.094;2023-02-21T06:28:20;100791.76;;;25.37;24.83
73242;BME280;65659;49.234;-2.094;2023-02-21T06:30:44;100789.27;;;25.38;24.81
73242;BME280;65659;49.234;-2.094;2023-02-21T06:33:11;100788.96;;;25.60;24.83
73242;BME280;65659;49.234;-2.094;2023-02-21T06:35:32;100788.84;;;25.37;24.83
73242;BME280;65659;49.234;-2.094;2023-02-21T06:37:58;100787.73;;;25.44;24.75
73242;BME280;65659;49.234;-2.094;2023-02-21T06:40:23;100786.61;;;25.72;24.71
73242;BME280;65659;49.234;-2.094;2023-02-21T06:42:55;100783.62;;;25.39;24.82
73242;BME280;65659;49.234;-2.094;2023-02-21T06:45:16;100781.20;;;25.36;24.83
73242;BME280;65659;49.234;-2.094;2023-02-21T06:47:41;100779.57;;;25.58;24.87
73242;BME280;65659;49.234;-2.094;2023-02-21T06:50:07;100775.18;;;25.28;24.91
73242;BME280;65659;49.234;-2.094;2023-02-21T06:52:32;100774.83;;;25.30;24.89
73242;BME280;65659;49.234;-2.094;2023-02-21T06:55:05;100776.56;;;25.37;24.83
73242;BME280;65659;49.234;-2.094;2023-02-21T06:57:24;100777.33;;;25.31;24.91
73242;BME280;65659;49.234;-2.094;2023-02-21T06:59:49;100779.08;;;25.78;24.90
73242;BME280;65659;49.234;-2.094;2023-02-21T07:02:18;100779.97;;;25.70;24.98
73242;BME280;65659;49.234;-2.094;2023-02-21T07:04:41;100782.54;;;25.28;24.93
73242;BME280;65659;49.234;-2.094;2023-02-21T07:07:06;100780.51;;;25.48;24.72
73242;BME280;65659;49.234;-2.094;2023-02-21T07:09:32;100778.31;;;25.50;24.71
73242;BME280;65659;49.234;-2.094;2023-02-21T07:11:58;100778.52;;;25.25;24.72
73242;BME280;65659;49.234;-2.094;2023-02-21T07:14:29;100780.26;;;25.49;24.71
73242;BME280;65659;49.234;-2.094;2023-02-21T07:16:49;100781.11;;;25.49;24.69
73242;BME280;65659;49.234;-2.094;2023-02-21T07:19:15;100779.41;;;25.54;24.68
73242;BME280;65659;49.234;-2.094;2023-02-21T07:21:41;100776.10;;;25.57;24.63
73242;BME280;65659;49.234;-2.094;2023-02-21T07:24:07;100775.87;;;25.33;24.61
73242;BME280;65659;49.234;-2.094;2023-02-21T07:26:32;100777.87;;;25.40;24.57
73242;BME280;65659;49.234;-2.094;2023-02-21T07:28:58;100776.90;;;25.41;24.53
73242;BME280;65659;49.234;-2.094;2023-02-21T07:31:24;100776.85;;;25.22;24.46
73242;BME280;65659;49.234;-2.094;2023-02-21T07:33:49;100774.35;;;25.29;24.40
73242;BME280;65659;49.234;-2.094;2023-02-21T07:36:16;100773.72;;;25.33;24.33
73242;BME280;65659;49.234;-2.094;2023-02-21T07:38:41;100775.45;;;25.58;24.31
73242;BME280;65659;49.234;-2.094;2023-02-21T07:41:07;100777.24;;;25.33;24.28
73242;BME280;65659;49.234;-2.094;2023-02-21T07:43:32;100779.32;;;25.34;24.22
73242;BME280;65659;49.234;-2.094;2023-02-21T07:45:58;100780.49;;;25.41;24.19
73242;BME280;65659;49.234;-2.094;2023-02-21T07:48:24;100778.41;;;25.50;24.13
73242;BME280;65659;49.234;-2.094;2023-02-21T07:50:50;100773.37;;;25.31;24.06
73242;BME280;65659;49.234;-2.094;2023-02-21T07:53:16;100770.51;;;25.38;24.01
73242;BME280;65659;49.234;-2.094;2023-02-21T07:55:42;100771.01;;;25.57;23.82
73242;BME280;65659;49.234;-2.094;2023-02-21T07:58:07;100772.14;;;25.69;23.66
73242;BME280;65659;49.234;-2.094;2023-02-21T08:00:33;100770.71;;;25.55;23.58
73242;BME280;65659;49.234;-2.094;2023-02-21T08:03:00;100772.94;;;25.38;23.52
73242;BME280;65659;49.234;-2.094;2023-02-21T08:05:24;100772.91;;;25.77;23.46
73242;BME280;65659;49.234;-2.094;2023-02-21T08:07:50;100769.58;;;25.89;23.35
73242;BME280;65659;49.234;-2.094;2023-02-21T08:10:21;100770.39;;;25.47;23.31
73242;BME280;65659;49.234;-2.094;2023-02-21T08:12:42;100769.33;;;25.62;23.20
73242;BME280;65659;49.234;-2.094;2023-02-21T08:15:08;100767.77;;;25.36;23.20
73242;BME280;65659;49.234;-2.094;2023-02-21T08:17:33;100766.13;;;25.71;23.10
73242;BME280;65659;49.234;-2.094;2023-02-21T08:19:59;100763.14;;;25.78;23.06
73242;BME280;65659;49.234;-2.094;2023-02-21T08:22:24;100761.39;;;25.84;23.16
73242;BME280;65659;49.234;-2.094;2023-02-21T08:24:50;100755.66;;;25.95;23.35
73242;BME280;65659;49.234;-2.094;2023-02-21T08:27:16;100755.04;;;25.95;23.40
73242;BME280;65659;49.234;-2.094;2023-02-21T08:29:43;100753.72;;;25.58;23.33
73242;BME280;65659;49.234;-2.094;2023-02-21T08:32:08;100749.13;;;25.72;23.17
73242;BME280;65659;49.234;-2.094;2023-02-21T08:34:33;100747.67;;;26.02;23.12
73242;BME280;65659;49.234;-2.094;2023-02-21T08:36:59;100747.20;;;26.05;23.06
73242;BME280;65659;49.234;-2.094;2023-02-21T08:39:25;100744.43;;;26.03;23.06
73242;BME280;65659;49.234;-2.094;2023-02-21T08:41:51;100741.48;;;25.72;23.08
73242;BME280;65659;49.234;-2.094;2023-02-21T08:44:22;100736.65;;;25.71;23.03
73242;BME280;65659;49.234;-2.094;2023-02-21T08:46:43;100737.04;;;25.74;23.02
73242;BME280;65659;49.234;-2.094;2023-02-21T08:49:09;100739.15;;;25.74;23.02
73242;BME280;65659;49.234;-2.094;2023-02-21T08:51:34;100737.37;;;25.85;22.91
73242;BME280;65659;49.234;-2.094;2023-02-21T08:53:59;100733.72;;;25.80;22.87
73242;BME280;65659;49.234;-2.094;2023-02-21T08:56:26;100731.91;;;25.87;22.83
73242;BME280;65659;49.234;-2.094;2023-02-21T08:58:51;100731.21;;;25.41;23.24
73242;BME280;65659;49.234;-2.094;2023-02-21T09:01:17;100729.84;;;25.69;23.25
73242;BME280;65659;49.234;-2.094;2023-02-21T09:03:43;100729.99;;;25.85;22.82
73242;BME280;65659;49.234;-2.094;2023-02-21T09:06:08;100725.91;;;25.99;22.79
73242;BME280;65659;49.234;-2.094;2023-02-21T09:08:34;100725.58;;;25.94;23.08
73242;BME280;65659;49.234;-2.094;2023-02-21T09:11:00;100724.81;;;25.54;22.83
73242;BME280;65659;49.234;-2.094;2023-02-21T09:13:25;100723.63;;;25.89;22.58
73242;BME280;65659;49.234;-2.094;2023-02-21T09:15:51;100724.77;;;25.64;23.20
73242;BME280;65659;49.234;-2.094;2023-02-21T09:18:16;100721.78;;;26.02;22.73
73242;BME280;65659;49.234;-2.094;2023-02-21T09:20:42;100718.04;;;26.22;22.84
73242;BME280;65659;49.234;-2.094;2023-02-21T09:23:08;100716.25;;;25.93;23.02
73242;BME280;65659;49.234;-2.094;2023-02-21T09:25:35;100711.91;;;25.73;23.08
73242;BME280;65659;49.234;-2.094;2023-02-21T09:27:59;100708.04;;;26.06;23.00
73242;BME280;65659;49.234;-2.094;2023-02-21T09:30:26;100711.01;;;26.09;22.87
73242;BME280;65659;49.234;-2.094;2023-02-21T09:32:51;100710.23;;;25.76;23.17
73242;BME280;65659;49.234;-2.094;2023-02-21T09:35:17;100710.90;;;26.30;23.09
73242;BME280;65659;49.234;-2.094;2023-02-21T09:37:44;100709.18;;;26.12;23.05
73242;BME280;65659;49.234;-2.094;2023-02-21T09:40:14;100708.69;;;25.80;23.11
73242;BME280;65659;49.234;-2.094;2023-02-21T09:42:34;100708.74;;;25.79;23.13
73242;BME280;65659;49.234;-2.094;2023-02-21T09:44:59;100707.70;;;26.03;23.11
73242;BME280;65659;49.234;-2.094;2023-02-21T09:47:29;100707.54;;;26.04;23.17
73242;BME280;65659;49.234;-2.094;2023-02-21T09:49:56;100702.53;;;26.01;23.08
73242;BME280;65659;49.234;-2.094;2023-02-21T09:52:21;100706.55;;;25.79;23.36
73242;BME280;65659;49.234;-2.094;2023-02-21T09:54:46;100704.64;;;26.30;23.04
73242;BME280;65659;49.234;-2.094;2023-02-21T09:57:12;100703.83;;;26.06;23.07
73242;BME280;65659;49.234;-2.094;2023-02-21T09:59:34;100702.77;;;26.13;23.02
73242;BME280;65659;49.234;-2.094;2023-02-21T10:02:13;100698.64;;;25.95;23.23
73242;BME280;65659;49.234;-2.094;2023-02-21T10:04:34;100698.93;;;26.30;23.19
73242;BME280;65659;49.234;-2.094;2023-02-21T10:06:55;100697.84;;;26.07;23.08
73242;BME280;65659;49.234;-2.094;2023-02-21T10:09:24;100698.29;;;25.90;22.72
73242;BME280;65659;49.234;-2.094;2023-02-21T10:11:53;100698.30;;;26.19;23.11
73242;BME280;65659;49.234;-2.094;2023-02-21T10:14:18;100697.21;;;26.28;23.04
73242;BME280;65659;49.234;-2.094;2023-02-21T10:16:38;100694.34;;;26.32;22.94
73242;BME280;65659;49.234;-2.094;2023-02-21T10:19:05;100694.42;;;26.36;23.12
73242;BME280;65659;49.234;-2.094;2023-02-21T10:21:29;100691.55;;;26.41;23.12
73242;BME280;65659;49.234;-2.094;2023-02-21T10:23:52;100690.20;;;26.64;23.09
73242;BME280;65659;49.234;-2.094;2023-02-21T10:26:22;100690.21;;;26.15;23.22
73242;BME280;65659;49.234;-2.094;2023-02-21T10:28:48;100690.06;;;26.43;23.13
73242;BME280;65659;49.234;-2.094;2023-02-21T10:31:14;100691.81;;;26.47;23.12
73242;BME280;65659;49.234;-2.094;2023-02-21T10:33:37;100686.65;;;26.55;23.02
73242;BME280;65659;49.234;-2.094;2023-02-21T10:35:59;100685.39;;;26.60;22.97
73242;BME280;65659;49.234;-2.094;2023-02-21T10:38:26;100685.62;;;26.65;23.08
73242;BME280;65659;49.234;-2.094;2023-02-21T10:40:53;100684.44;;;26.42;23.24
73242;BME280;65659;49.234;-2.094;2023-02-21T10:43:20;100684.61;;;26.66;23.29
73242;BME280;65659;49.234;-2.094;2023-02-21T10:45:46;100682.11;;;26.41;23.21
73242;BME280;65659;49.234;-2.094;2023-02-21T10:48:10;100679.27;;;26.65;23.17
73242;BME280;65659;49.234;-2.094;2023-02-21T10:50:42;100678.76;;;26.38;23.26
73242;BME280;65659;49.234;-2.094;2023-02-21T10:53:00;100675.94;;;26.66;23.19
73242;BME280;65659;49.234;-2.094;2023-02-21T10:55:25;100670.90;;;26.71;23.26
73242;BME280;65659;49.234;-2.094;2023-02-21T10:57:54;100668.49;;;26.66;23.34
73242;BME280;65659;49.234;-2.094;2023-02-21T11:00:23;100667.28;;;26.41;23.28
73242;BME280;65659;49.234;-2.094;2023-02-21T11:02:44;100663.19;;;26.71;23.47
73242;BME280;65659;49.234;-2.094;2023-02-21T11:05:11;100662.08;;;26.55;23.35
73242;BME280;65659;49.234;-2.094;2023-02-21T11:07:34;100660.12;;;26.70;23.44
73242;BME280;65659;49.234;-2.094;2023-02-21T11:09:59;100660.18;;;26.72;23.16
73242;BME280;65659;49.234;-2.094;2023-02-21T11:12:28;100659.25;;;26.67;23.30
73242;BME280;65659;49.234;-2.094;2023-02-21T11:15:04;100655.83;;;26.69;23.22
73242;BME280;65659;49.234;-2.094;2023-02-21T11:17:19;100651.81;;;26.64;23.13
73242;BME280;65659;49.234;-2.094;2023-02-21T11:19:45;100649.42;;;26.67;23.21
73242;BME280;65659;49.234;-2.094;2023-02-21T11:22:08;100647.70;;;26.67;23.22
73242;BME280;65659;49.234;-2.094;2023-02-21T11:24:34;100648.19;;;26.64;23.21
73242;BME280;65659;49.234;-2.094;2023-02-21T11:26:59;100644.59;;;26.68;23.17
73242;BME280;65659;49.234;-2.094;2023-02-21T11:29:25;100646.55;;;26.65;23.32
73242;BME280;65659;49.234;-2.094;2023-02-21T11:31:51;100643.95;;;26.61;23.29
73242;BME280;65659;49.234;-2.094;2023-02-21T11:34:17;100645.19;;;26.67;23.43
73242;BME280;65659;49.234;-2.094;2023-02-21T11:36:44;100645.44;;;26.72;23.18
73242;BME280;65659;49.234;-2.094;2023-02-21T11:39:16;100641.61;;;26.51;23.15
73242;BME280;65659;49.234;-2.094;2023-02-21T11:41:43;100638.17;;;26.73;23.14
73242;BME280;65659;49.234;-2.094;2023-02-21T11:43:59;100635.67;;;26.71;23.23
73242;BME280;65659;49.234;-2.094;2023-02-21T11:46:35;100631.87;;;26.48;23.30
73242;BME280;65659;49.234;-2.094;2023-02-21T11:48:58;100630.51;;;26.49;23.26
73242;BME280;65659;49.234;-2.094;2023-02-21T11:51:26;100625.79;;;26.74;23.32
73242;BME280;65659;49.234;-2.094;2023-02-21T11:53:43;100624.21;;;26.76;23.32
73242;BME280;65659;49.234;-2.094;2023-02-21T11:56:23;100627.25;;;26.30;23.37
73242;BME280;65659;49.234;-2.094;2023-02-21T11:58:40;100616.46;;;26.75;23.35
73242;BME280;65659;49.234;-2.094;2023-02-21T12:01:03;100614.18;;;26.81;23.29
73242;BME280;65659;49.234;-2.094;2023-02-21T12:03:35;100608.21;;;26.79;23.40
73242;BME280;65659;49.234;-2.094;2023-02-21T12:05:57;100600.98;;;26.80;23.41
73242;BME280;65659;49.234;-2.094;2023-02-21T12:08:27;100596.15;;;26.53;23.57
73242;BME280;65659;49.234;-2.094;2023-02-21T12:10:46;100591.59;;;26.57;23.39
73242;BME280;65659;49.234;-2.094;2023-02-21T12:13:17;100589.29;;;26.54;23.20
73242;BME280;65659;49.234;-2.094;2023-02-21T12:15:42;100589.70;;;26.58;23.35
73242;BME280;65659;49.234;-2.094;2023-02-21T12:18:15;100584.26;;;26.58;23.58
73242;BME280;65659;49.234;-2.094;2023-02-21T12:20:36;100578.89;;;26.65;23.43
73242;BME280;65659;49.234;-2.094;2023-02-21T12:22:59;100578.48;;;26.62;23.40
73242;BME280;65659;49.234;-2.094;2023-02-21T12:25:22;100573.24;;;26.35;23.47
73242;BME280;65659;49.234;-2.094;2023-02-21T12:27:49;100570.96;;;26.79;23.49
73242;BME280;65659;49.234;-2.094;2023-02-21T12:30:22;100566.45;;;26.73;23.28
73242;BME280;65659;49.234;-2.094;2023-02-21T12:32:48;100561.54;;;26.51;23.22
73242;BME280;65659;49.234;-2.094;2023-02-21T12:37:30;100556.42;;;26.61;23.34
73242;BME280;65659;49.234;-2.094;2023-02-21T12:40:01;100552.75;;;26.34;23.38